Terminal Aerodrome Forecast
Issued by NWS Shreveport, LA

Home | Current Version | Previous Version | Text Only | Print | Product List | Glossary On
Versions: 1 2 3 4 5 6 7 8 9 10 11 12 13 14 15 16 17 18 19 20 21 22 23 24 25 26 27
000
FTUS44 KSHV 232345
TAFGGG
TAF
KGGG 232345Z 2400/2424 00000KT 5SM -RA BR BKN040 BKN070 OVC110
      TEMPO 2400/2401 6SM -TSRA BR BKN020 OVC035CB
     FM240100 33007KT 3SM -TSRA BR BKN020 OVC035CB
     FM240300 32008KT P6SM BKN015
     FM240700 30005KT P6SM SCT015
     FM241500 31015G25KT P6SM SKC=

USA.gov is the U.S. government's official web portal to all federal, state and local government web resources and services.